Time;durP1;ratioP1;P1;durP2;ratioP2;P2;SDS_P1;SDS_P2;PMS_P1;PMS_P2;Temp;Humidity;BMP_temperature;BMP_pressure;BME280_temperature;BME280_humidity;BME280_pressure;Samples;Min_cycle;Max_cycle;Signal;HPM_P1;HPM_P2
2022/12/13 00:00:18;;;;;;;7.00;3.45;;;;;;;-8.64;99.96;99296.34;10607778;27;20039;-80
2022/12/13 00:05:20;;;;;;;7.82;3.10;;;;;;;-8.62;99.95;99289.00;10603276;27;20915;-80
2022/12/13 00:10:22;;;;;;;5.80;3.47;;;;;;;-8.61;100.00;99282.69;10607789;27;20036;-81
2022/12/13 00:15:24;;;;;;;6.18;3.70;;;;;;;-8.60;100.00;99301.09;10631132;27;20050;-78
2022/12/13 00:20:26;;;;;;;7.20;3.13;;;;;;;-8.58;100.00;99306.22;10611665;27;20039;-81
2022/12/13 00:25:29;;;;;;;6.85;3.42;;;;;;;-8.58;100.00;99308.88;10582614;28;20051;-81
2022/12/13 00:30:31;;;;;;;6.63;3.65;;;;;;;-8.53;100.00;99311.78;10610556;27;20043;-80
2022/12/13 00:35:38;;;;;;;6.78;3.80;;;;;;;-8.52;100.00;99310.75;10593433;28;20043;-81
2022/12/13 00:40:40;;;;;;;8.52;4.07;;;;;;;-8.51;100.00;99320.38;10603712;27;20043;-81
2022/12/13 00:45:42;;;;;;;7.13;3.13;;;;;;;-8.49;100.00;99318.38;10619520;27;20055;-81
2022/12/13 00:50:44;;;;;;;12.80;4.60;;;;;;;-8.48;100.00;99317.38;10615595;28;20042;-81
2022/12/13 00:55:46;;;;;;;9.70;4.13;;;;;;;-8.45;100.00;99313.50;10616765;27;20039;-81
2022/12/13 01:00:49;;;;;;;7.63;4.28;;;;;;;-8.41;100.00;99320.91;10602352;27;20051;-80
2022/12/13 01:05:51;;;;;;;8.73;3.65;;;;;;;-8.40;100.00;99319.88;10609704;27;20421;-80
2022/12/13 01:10:53;;;;;;;8.82;4.10;;;;;;;-8.38;100.00;99325.84;10632795;27;20040;-80
2022/12/13 01:15:56;;;;;;;7.00;3.60;;;;;;;-8.32;100.00;99301.13;10615875;27;20058;-81
2022/12/13 01:21:04;;;;;;;9.30;4.47;;;;;;;-8.27;100.00;99319.16;10630723;27;20039;-81
2022/12/13 01:26:08;;;;;;;;;;;;;;;-8.22;100.00;99316.72;10656052;27;20039;-81
2022/12/13 01:31:17;;;;;;;11.02;4.40;;;;;;;-8.20;100.00;99302.22;10594796;28;20409;-81
2022/12/13 01:36:21;;;;;;;10.38;4.70;;;;;;;-8.14;100.00;99323.75;10611301;28;20036;-80
2022/12/13 01:41:25;;;;;;;13.15;4.43;;;;;;;-8.12;100.00;99311.09;10611868;28;20054;-80
2022/12/13 01:46:30;;;;;;;6.95;3.80;;;;;;;-8.11;100.00;99297.59;10641202;27;20531;-80
2022/12/13 01:51:41;;;;;;;10.45;4.90;;;;;;;-8.07;100.00;99298.84;10649908;27;20039;-80
2022/12/13 01:56:46;;;;;;;10.35;4.80;;;;;;;-8.05;100.00;99310.09;10611993;28;20054;-80
2022/12/13 02:01:50;;;;;;;9.00;4.18;;;;;;;-8.02;100.00;99319.53;10598932;27;20051;-80
2022/12/13 02:06:52;;;;;;;13.57;6.03;;;;;;;-8.01;100.00;99314.00;10606574;27;20048;-80
2022/12/13 02:11:55;;;;;;;9.52;4.05;;;;;;;-7.97;100.00;99309.97;10548544;28;20425;-80
2022/12/13 02:17:16;;;;;;;10.40;4.90;;;;;;;-7.93;100.00;99310.41;10614537;27;20409;-80
2022/12/13 02:22:43;;;;;;;10.90;5.10;;;;;;;-7.88;100.00;99318.63;10620705;28;20047;-79
2022/12/13 02:28:19;;;;;;;12.40;4.90;;;;;;;-7.80;100.00;99313.16;10650325;28;20054;-80
2022/12/13 02:33:36;;;;;;;12.88;5.97;;;;;;;-7.72;100.00;99326.31;10626047;28;20050;-80
2022/12/13 02:38:44;;;;;;;8.43;3.88;;;;;;;-7.68;100.00;99329.38;10620584;28;20514;-80
2022/12/13 02:43:53;;;;;;;13.10;5.63;;;;;;;-7.65;100.00;99324.50;10610859;28;20035;-80
2022/12/13 02:48:57;;;;;;;10.80;5.78;;;;;;;-7.61;100.00;99328.44;10577103;28;20478;-80
2022/12/13 02:54:00;;;;;;;6.38;3.35;;;;;;;-7.57;100.00;99330.69;10584059;28;20051;-80
2022/12/13 02:59:06;;;;;;;13.50;6.10;;;;;;;-7.54;100.00;99336.44;10590676;28;20556;-80
2022/12/13 03:06:28;;;;;;;10.35;5.03;;;;;;;-7.54;100.00;99314.31;10606888;28;20039;-80
2022/12/13 03:10:06;;;;;;;9.57;5.47;;;;;;;-7.51;100.00;99316.56;10579104;28;20043;-80
2022/12/13 03:15:33;;;;;;;9.18;5.03;;;;;;;-7.48;100.00;99309.00;10562516;28;20035;-80
2022/12/13 03:20:35;;;;;;;10.98;4.93;;;;;;;-7.43;100.00;99306.59;10626564;28;20039;-80
2022/12/13 03:25:39;;;;;;;8.68;4.57;;;;;;;-7.40;100.00;99311.53;10578367;28;20036;-80
2022/12/13 03:30:42;;;;;;;11.23;5.07;;;;;;;-7.37;100.00;99311.13;10587219;27;20417;-80
2022/12/13 03:35:45;;;;;;;10.57;5.00;;;;;;;-7.30;100.00;99316.47;10611871;27;20043;-80
2022/12/13 03:40:49;;;;;;;6.68;2.75;;;;;;;-7.27;100.00;99294.78;10589690;27;20036;-80
2022/12/13 03:45:53;;;;;;;9.80;4.18;;;;;;;-7.20;100.00;99298.28;10623836;27;20064;-80
2022/12/13 03:50:55;;;;;;;5.35;3.30;;;;;;;-7.15;100.00;99297.66;10616848;27;20040;-78
2022/12/13 03:55:57;;;;;;;8.32;4.22;;;;;;;-7.10;100.00;99301.41;10596230;27;20034;-81
2022/12/13 04:00:59;;;;;;;10.77;4.38;;;;;;;-7.04;100.00;99299.78;10597165;27;20046;-81
2022/12/13 04:06:02;;;;;;;8.57;3.83;;;;;;;-6.99;100.00;99303.47;10625018;27;20023;-79
2022/12/13 04:16:26;;;;;;;5.47;2.90;;;;;;;-6.84;100.00;99310.47;10604030;27;20086;-78
2022/12/13 04:21:34;;;;;;;1.73;1.25;;;;;;;-6.78;100.00;99302.50;10599677;27;20449;-77
2022/12/13 04:26:36;;;;;;;6.43;3.20;;;;;;;-6.69;100.00;99295.13;10613723;27;20759;-80
2022/12/13 04:31:38;;;;;;;6.47;3.45;;;;;;;-6.66;100.00;99291.22;10602468;28;20532;-79
2022/12/13 04:36:41;;;;;;;3.88;2.58;;;;;;;-6.60;100.00;99291.22;10593510;27;20052;-80
2022/12/13 04:41:43;;;;;;;6.75;3.45;;;;;;;-6.55;100.00;99295.97;10555992;28;20036;-80
2022/12/13 04:46:45;;;;;;;8.75;3.95;;;;;;;-6.51;100.00;99295.38;10610570;27;20044;-79
2022/12/13 04:51:48;;;;;;;3.63;2.53;;;;;;;-6.47;100.00;99285.91;10612625;27;20039;-79
2022/12/13 04:56:50;;;;;;;4.03;2.28;;;;;;;-6.44;100.00;99279.34;10613913;28;20047;-79
2022/12/13 05:01:52;;;;;;;4.97;3.03;;;;;;;-6.42;100.00;99282.63;10614013;28;20035;-79
2022/12/13 05:06:56;;;;;;;7.20;3.28;;;;;;;-6.39;100.00;99277.72;10592321;28;20036;-79
2022/12/13 05:11:58;;;;;;;6.38;3.47;;;;;;;-6.34;100.00;99284.28;10606526;27;20118;-80
2022/12/13 05:17:00;;;;;;;7.20;3.95;;;;;;;-6.29;100.00;99287.16;10601624;27;20054;-80
2022/12/13 05:22:04;;;;;;;8.50;3.40;;;;;;;-6.23;100.00;99283.69;10582711;28;20055;-80
2022/12/13 05:27:06;;;;;;;7.43;4.38;;;;;;;-6.21;100.00;99276.28;10591192;28;20040;-80
2022/12/13 05:32:09;;;;;;;8.88;3.35;;;;;;;-6.17;100.00;99275.66;10616215;27;20408;-79
2022/12/13 05:37:11;;;;;;;3.67;2.33;;;;;;;-6.10;100.00;99280.97;10608794;27;20047;-79
2022/12/13 05:42:13;;;;;;;4.22;2.17;;;;;;;-6.03;100.00;99281.81;10591718;27;20047;-79
2022/12/13 05:47:15;;;;;;;3.70;2.53;;;;;;;-5.98;100.00;99273.16;10604307;28;20058;-79
2022/12/13 05:52:20;;;;;;;7.97;3.92;;;;;;;-5.95;100.00;99283.44;10615120;27;20043;-80
2022/12/13 05:57:23;;;;;;;5.97;2.60;;;;;;;-5.94;100.00;99277.06;10604045;27;20047;-79
2022/12/13 06:02:25;;;;;;;4.13;2.42;;;;;;;-5.89;100.00;99272.72;10593183;27;20047;-80
2022/12/13 06:07:27;;;;;;;9.43;4.63;;;;;;;-5.76;100.00;99270.00;10591853;28;20113;-80
2022/12/13 06:12:29;;;;;;;8.32;3.08;;;;;;;-5.63;100.00;99277.19;10592643;28;20042;-80
2022/12/13 06:17:33;;;;;;;2.67;2.13;;;;;;;-5.55;100.00;99284.97;10566074;28;20040;-79
2022/12/13 06:22:36;;;;;;;6.50;3.22;;;;;;;-5.45;100.00;99289.88;10559198;27;20048;-80
2022/12/13 06:27:39;;;;;;;5.45;3.42;;;;;;;-5.37;100.00;99281.63;10565369;28;20042;-80
2022/12/13 06:32:41;;;;;;;3.80;1.70;;;;;;;-5.32;100.00;99271.13;10599650;28;20048;-80
2022/12/13 06:37:44;;;;;;;1.02;1.00;;;;;;;-5.29;100.00;99272.53;10598588;28;20551;-81
2022/12/13 06:42:46;;;;;;;4.68;2.83;;;;;;;-5.29;100.00;99272.53;10606226;28;20556;-80
2022/12/13 06:47:49;;;;;;;4.82;2.67;;;;;;;-5.28;100.00;99269.66;10599358;28;20042;-81
2022/12/13 06:52:52;;;;;;;5.20;2.95;;;;;;;-5.31;100.00;99280.78;10608043;28;20050;-81
2022/12/13 06:57:57;;;;;;;4.20;2.80;;;;;;;-5.32;100.00;99265.75;10608857;28;20036;-80
2022/12/13 07:02:59;;;;;;;4.90;2.67;;;;;;;-5.37;100.00;99284.31;10605598;27;20043;-81
2022/12/13 07:08:01;;;;;;;3.38;1.52;;;;;;;-5.42;100.00;99277.94;10641551;27;20390;-81
2022/12/13 07:13:10;;;;;;;4.53;2.70;;;;;;;-5.46;100.00;99282.88;10601987;27;20040;-82
2022/12/13 07:18:12;;;;;;;4.82;2.85;;;;;;;-5.52;100.00;99291.75;10619022;27;20036;-82
2022/12/13 07:23:14;;;;;;;3.50;2.10;;;;;;;-5.52;99.94;99278.38;10616706;28;20057;-81
2022/12/13 07:28:17;;;;;;;7.22;3.92;;;;;;;-5.55;99.78;99278.81;10615440;28;20516;-81
2022/12/13 07:33:24;;;;;;;5.47;2.83;;;;;;;-5.51;98.98;99283.53;10557490;28;20044;-80
2022/12/13 07:38:31;;;;;;;5.43;2.38;;;;;;;-5.47;98.98;99275.91;10586386;27;20052;-80
2022/12/13 07:43:37;;;;;;;2.63;1.95;;;;;;;-5.41;98.58;99284.91;10616206;28;20520;-81
2022/12/13 07:48:39;;;;;;;4.88;2.83;;;;;;;-5.40;98.53;99286.56;10616773;27;20039;-82
2022/12/13 07:53:41;;;;;;;4.95;2.95;;;;;;;-5.35;98.43;99300.13;10596448;27;20040;-82
2022/12/13 07:58:47;;;;;;;2.75;2.17;;;;;;;-5.34;98.43;99286.56;10610898;28;20387;-81
2022/12/13 08:03:50;;;;;;;5.78;2.33;;;;;;;-5.31;98.14;99270.09;10605988;27;20031;-81
2022/12/13 08:08:56;;;;;;;4.25;3.03;;;;;;;-5.23;98.39;99282.38;10584349;27;20039;-82
2022/12/13 08:14:05;;;;;;;3.27;2.13;;;;;;;-5.22;97.89;99279.47;10597571;28;20047;-82
2022/12/13 08:19:09;;;;;;;6.18;3.63;;;;;;;-5.19;98.39;99267.56;10615708;28;20047;-81
2022/12/13 08:24:12;;;;;;;1.35;1.23;;;;;;;-5.19;99.14;99254.19;10615332;27;20050;-81
2022/12/13 08:29:18;;;;;;;5.47;2.60;;;;;;;-5.17;99.00;99249.47;10616058;28;20035;-81
2022/12/13 08:34:45;;;;;;;4.80;3.00;;;;;;;-5.16;99.06;99251.91;10600301;27;20044;-81
2022/12/13 08:39:48;;;;;;;5.18;2.78;;;;;;;-5.19;98.68;99260.38;10572543;28;20050;-81
2022/12/13 08:44:52;;;;;;;2.78;1.95;;;;;;;-5.20;98.64;99242.69;10538591;28;20106;-81
2022/12/13 08:49:58;;;;;;;4.40;2.75;;;;;;;-5.20;99.01;99223.16;10553748;28;20047;-81
2022/12/13 08:55:00;;;;;;;3.70;2.17;;;;;;;-5.21;99.37;99249.06;10571720;28;20036;-81
2022/12/13 09:00:04;;;;;;;3.80;2.63;;;;;;;-5.19;99.40;99241.66;10551916;28;20127;-81
2022/12/13 09:05:08;;;;;;;3.88;2.28;;;;;;;-5.15;99.32;99242.03;10553317;28;20533;-80
2022/12/13 09:10:10;;;;;;;6.72;2.47;;;;;;;-5.12;99.47;99230.91;10541307;28;20044;-79
2022/12/13 09:15:16;;;;;;;5.47;2.90;;;;;;;-5.07;98.99;99236.44;10569616;28;20039;-81
2022/12/13 09:20:20;;;;;;;8.13;4.65;;;;;;;-5.02;99.67;99235.81;10570590;28;20059;-81
2022/12/13 09:25:22;;;;;;;5.43;2.95;;;;;;;-4.98;99.36;99215.59;10572386;28;20440;-81
2022/12/13 09:30:24;;;;;;;9.70;5.50;;;;;;;-4.96;98.86;99205.50;10549246;28;20047;-80
2022/12/13 09:35:27;;;;;;;8.60;3.83;;;;;;;-4.89;99.02;99203.59;10596417;28;20039;-81
2022/12/13 09:40:30;;;;;;;8.40;5.05;;;;;;;-4.83;98.58;99197.41;10594865;28;20047;-80
2022/12/13 09:45:34;;;;;;;9.40;4.50;;;;;;;-4.77;98.79;99190.34;10609063;28;20036;-79
2022/12/13 09:50:37;;;;;;;8.43;4.88;;;;;;;-4.74;98.56;99193.41;10585160;28;20044;-80
2022/12/13 09:55:45;;;;;;;9.23;5.28;;;;;;;-4.72;98.30;99183.31;10577739;28;20055;-78
2022/12/13 10:00:54;;;;;;;8.00;3.42;;;;;;;-4.70;98.82;99170.53;10609723;27;20059;-80
2022/12/13 10:05:58;;;;;;;10.68;5.03;;;;;;;-4.71;98.72;99163.53;10613541;28;20452;-80
2022/12/13 10:11:00;;;;;;;8.43;4.90;;;;;;;-4.69;98.99;99163.31;10584376;28;20561;-80
2022/12/13 10:16:15;;;;;;;9.10;6.10;;;;;;;-4.66;99.23;99170.94;10618066;28;20514;-81
2022/12/13 10:21:28;;;;;;;8.18;4.32;;;;;;;-4.66;99.80;99139.63;10596744;28;20052;-82
2022/12/13 10:26:35;;;;;;;7.93;4.00;;;;;;;-4.60;99.66;99151.31;10615598;28;20044;-80
2022/12/13 10:31:49;;;;;;;11.83;5.37;;;;;;;-4.59;99.87;99151.09;10616687;28;20044;-80
2022/12/13 10:42:23;;;;;;;8.30;4.47;;;;;;;-4.48;100.00;99164.81;10602320;27;20060;-79
2022/12/13 10:47:26;;;;;;;7.93;4.13;;;;;;;-4.44;100.00;99160.63;10630726;27;20539;-79
2022/12/13 10:52:33;;;;;;;8.68;4.10;;;;;;;-4.42;99.75;99159.38;10621550;27;20454;-80
2022/12/13 10:57:48;;;;;;;7.30;3.60;;;;;;;-4.39;99.51;99160.78;10604901;27;20040;-80
2022/12/13 11:02:54;;;;;;;7.18;4.90;;;;;;;-4.39;99.19;99172.31;10601367;27;20767;-81
2022/12/13 11:08:20;;;;;;;7.10;4.50;;;;;;;-4.38;97.62;99157.88;10629939;27;20039;-80
2022/12/13 11:13:39;;;;;;;9.20;4.40;;;;;;;-4.36;97.67;99160.34;10630502;27;20039;-81
2022/12/13 11:18:41;;;;;;;;;;;;;;;-4.34;97.08;99147.53;10637687;27;20042;-82
2022/12/13 11:23:44;;;;;;;7.00;4.22;;;;;;;-4.32;96.27;99143.63;10625175;27;19977;-85
2022/12/13 11:28:59;;;;;;;8.32;4.70;;;;;;;-4.31;96.45;99131.06;10611959;27;20531;-80
2022/12/13 11:34:16;;;;;;;8.15;5.25;;;;;;;-4.29;96.26;99135.16;10623445;28;20448;-80
2022/12/13 11:39:36;;;;;;;11.55;4.70;;;;;;;-4.26;95.11;99139.25;10631052;28;20035;-80
2022/12/13 11:44:55;;;;;;;6.72;3.40;;;;;;;-4.26;95.37;99142.75;10578696;28;20044;-80
2022/12/13 11:49:57;;;;;;;7.45;3.60;;;;;;;-4.22;93.76;99143.09;10600953;27;20035;-81
2022/12/13 11:55:03;;;;;;;10.27;4.43;;;;;;;-4.17;93.30;99158.50;10607959;28;20047;-80
2022/12/13 12:00:20;;;;;;;8.13;5.20;;;;;;;-4.16;92.56;99154.81;10645141;27;20056;-81
2022/12/13 12:05:29;;;;;;;5.60;2.75;;;;;;;-4.19;93.39;99145.34;10658431;27;20421;-81
2022/12/13 12:10:43;;;;;;;7.63;3.97;;;;;;;-4.27;92.76;99143.78;10639859;27;20039;-81
2022/12/13 12:16:00;;;;;;;8.43;4.35;;;;;;;-4.29;93.06;99150.41;10582590;28;20031;-80
2022/12/13 12:21:28;;;;;;;8.48;4.22;;;;;;;-4.32;92.91;99146.31;10598423;28;20513;-79
2022/12/13 12:26:41;;;;;;;7.43;3.73;;;;;;;-4.31;93.18;99149.81;10624723;27;20035;-80
2022/12/13 12:31:55;;;;;;;9.50;4.28;;;;;;;-4.31;93.76;99153.31;10591439;28;20055;-80
2022/12/13 12:38:07;;;;;;;5.80;3.63;;;;;;;-4.29;93.32;99150.41;10573246;28;20388;-80
2022/12/13 12:43:28;;;;;;;7.47;3.70;;;;;;;-4.23;92.63;99152.19;10434394;28;20608;-80
2022/12/13 12:49:12;;;;;;;5.00;2.80;;;;;;;-4.23;93.28;99146.81;10572185;28;20063;-81
2022/12/13 12:54:14;;;;;;;7.22;2.92;;;;;;;-4.20;93.19;99149.06;10586460;28;20124;-80
2022/12/13 12:59:34;;;;;;;8.55;4.13;;;;;;;-4.18;93.37;99168.41;10610819;28;20036;-81
2022/12/13 13:04:45;;;;;;;6.00;3.40;;;;;;;-4.14;93.39;99148.19;10589486;28;20031;-78
2022/12/13 13:09:48;;;;;;;7.55;4.13;;;;;;;-4.10;93.14;99154.72;10574393;28;20046;-82
2022/12/13 13:14:50;;;;;;;6.10;3.15;;;;;;;-4.05;92.29;99170.13;10584287;28;20056;-82
2022/12/13 13:19:53;;;;;;;3.40;2.35;;;;;;;-4.00;91.63;99160.38;10559047;28;20048;-79
2022/12/13 13:25:35;;;;;;;8.23;3.50;;;;;;;-3.97;92.27;99153.78;10571712;28;20044;-81
2022/12/13 13:30:37;;;;;;;5.03;2.97;;;;;;;-3.99;92.93;99166.56;10627304;28;20053;-80
2022/12/13 13:35:42;;;;;;;4.82;2.75;;;;;;;-3.96;91.87;99153.53;10615712;27;20539;-81
2022/12/13 13:40:47;;;;;;;7.88;4.00;;;;;;;-3.97;92.52;99151.91;10654176;27;20036;-83
2022/12/13 13:45:59;;;;;;;5.65;2.90;;;;;;;-3.93;92.83;99143.44;10608059;27;20047;-80
2022/12/13 13:51:25;;;;;;;6.95;3.28;;;;;;;-3.93;93.11;99143.44;10567916;28;20540;-80
2022/12/13 13:56:34;;;;;;;5.47;2.85;;;;;;;-3.91;92.59;99150.19;10578580;28;20034;-83
2022/12/13 14:02:13;;;;;;;3.80;2.70;;;;;;;-3.89;92.88;99133.88;10602794;28;20027;-83
2022/12/13 14:07:41;;;;;;;4.78;3.17;;;;;;;-3.88;93.12;99140.88;10557169;28;20050;-78
2022/12/13 14:13:12;;;;;;;8.68;3.80;;;;;;;-3.88;93.67;99132.84;10603738;28;20055;-77
2022/12/13 14:18:20;;;;;;;5.35;3.55;;;;;;;-3.87;93.43;99131.78;10583238;27;20052;-79
2022/12/13 14:23:29;;;;;;;6.68;3.47;;;;;;;-3.87;94.20;99132.63;10611272;27;20035;-76
2022/12/13 14:28:59;;;;;;;7.50;3.35;;;;;;;-3.85;94.06;99143.94;10556812;28;20043;-81
2022/12/13 14:34:03;;;;;;;6.63;2.92;;;;;;;-3.85;93.61;99141.25;10607130;28;20051;-80
2022/12/13 14:39:15;;;;;;;3.60;1.95;;;;;;;-3.86;92.58;99133.44;10587360;28;20074;-81
2022/12/13 14:44:28;;;;;;;3.47;2.40;;;;;;;-3.83;92.11;99141.03;10609782;28;20051;-81
2022/12/13 14:49:42;;;;;;;5.63;2.80;;;;;;;-3.83;92.03;99130.28;10586374;28;20044;-81
2022/12/13 14:54:47;;;;;;;4.13;2.05;;;;;;;-3.82;91.96;99134.63;10610941;28;20052;-78
2022/12/13 14:59:55;;;;;;;5.03;2.60;;;;;;;-3.80;90.58;99145.94;10606275;28;20043;-80
2022/12/13 15:05:04;;;;;;;5.30;2.70;;;;;;;-3.79;90.82;99132.31;10619497;28;20100;-78
2022/12/13 15:10:39;;;;;;;4.70;2.63;;;;;;;-3.79;89.21;99102.84;10615838;28;20047;-79
2022/12/13 15:15:41;;;;;;;3.50;1.95;;;;;;;-3.76;89.33;99128.38;10611448;28;20035;-76
2022/12/13 15:20:44;;;;;;;3.75;2.00;;;;;;;-3.79;89.56;99126.16;10604987;28;20054;-76
2022/12/13 15:25:58;;;;;;;3.70;2.03;;;;;;;-3.75;88.12;99130.00;10628844;27;20051;-78
2022/12/13 15:31:03;;;;;;;4.50;2.20;;;;;;;-3.75;88.70;99125.47;10639530;27;20055;-78
2022/12/13 15:36:18;;;;;;;4.47;2.78;;;;;;;-3.74;88.41;99128.97;10615240;28;20483;-78
2022/12/13 15:41:27;;;;;;;2.63;1.80;;;;;;;-3.72;86.91;99125.00;10589933;28;20330;-78
2022/12/13 15:46:31;;;;;;;4.05;1.85;;;;;;;-3.70;87.26;99120.25;10569564;28;20046;-78
2022/12/13 15:51:52;;;;;;;2.28;1.70;;;;;;;-3.72;87.31;99129.56;10607776;28;20042;-77
2022/12/13 15:57:16;;;;;;;3.90;2.15;;;;;;;-3.73;87.76;99130.59;10622292;27;20181;-77
2022/12/13 16:02:23;;;;;;;2.38;1.77;;;;;;;-3.72;87.39;99129.56;10592422;28;20040;-78
2022/12/13 16:07:28;;;;;;;3.22;2.22;;;;;;;-3.70;88.09;99130.13;10608766;28;20024;-77
2022/12/13 16:12:35;;;;;;;2.42;1.30;;;;;;;-3.69;88.81;99134.47;10557624;28;20396;-77
2022/12/13 16:17:39;;;;;;;2.13;1.45;;;;;;;-3.72;87.81;99140.28;10582961;27;20039;-76
2022/12/13 16:22:42;;;;;;;2.05;1.40;;;;;;;-3.79;87.42;99134.19;10628635;27;20039;-77
2022/12/13 16:27:44;;;;;;;3.58;1.67;;;;;;;-3.82;86.62;99146.16;10597469;28;20058;-77
2022/12/13 16:32:47;;;;;;;2.58;1.73;;;;;;;-3.85;86.38;99138.56;10615050;28;20052;-77
2022/12/13 16:37:52;;;;;;;2.30;1.80;;;;;;;-3.90;86.00;99157.19;10615334;28;20514;-77
2022/12/13 16:42:56;;;;;;;3.85;2.72;;;;;;;-3.95;85.24;99168.59;10612370;27;20043;-77
2022/12/13 16:48:00;;;;;;;1.55;1.23;;;;;;;-4.00;84.92;99171.09;10594391;28;20055;-78
2022/12/13 16:53:02;;;;;;;1.90;1.20;;;;;;;-4.05;84.01;99181.66;10592672;28;20043;-77
2022/12/13 16:58:09;;;;;;;4.28;2.20;;;;;;;-4.08;83.90;99174.06;10610866;28;20615;-79
2022/12/13 17:03:12;;;;;;;2.78;1.42;;;;;;;-4.10;82.87;99176.16;10593299;28;20410;-77
2022/12/13 17:08:15;;;;;;;2.53;1.40;;;;;;;-4.09;82.54;99180.47;10610465;28;20051;-78
2022/12/13 17:13:17;;;;;;;3.60;1.58;;;;;;;-4.10;82.65;99170.81;10609557;28;20505;-79
2022/12/13 17:18:19;;;;;;;4.35;2.83;;;;;;;-4.13;83.37;99173.94;10610738;28;20054;-78
2022/12/13 17:23:21;;;;;;;3.15;1.55;;;;;;;-4.08;82.90;99174.06;10601432;28;20059;-77
2022/12/13 17:28:23;;;;;;;3.08;1.83;;;;;;;-4.07;83.32;99181.06;10552996;28;20052;-78
2022/12/13 17:33:25;;;;;;;3.15;1.70;;;;;;;-4.05;83.02;99178.97;10636122;27;20050;-77
2022/12/13 17:38:28;;;;;;;3.00;1.10;;;;;;;-4.07;83.51;99172.22;10639559;27;20043;-78
2022/12/13 17:43:30;;;;;;;4.53;1.77;;;;;;;-4.12;84.03;99180.91;10608041;27;20229;-77
2022/12/13 17:48:33;;;;;;;2.70;1.42;;;;;;;-4.17;82.84;99186.09;10597200;28;20050;-77
2022/12/13 17:53:37;;;;;;;1.80;1.38;;;;;;;-4.21;84.16;99195.63;10612202;28;20055;-79
2022/12/13 17:58:39;;;;;;;2.60;1.55;;;;;;;-4.24;83.13;99206.78;10610005;28;20043;-77
2022/12/13 18:03:42;;;;;;;2.85;1.90;;;;;;;-4.25;82.45;99202.47;10612682;27;20053;-78
2022/12/13 18:08:45;;;;;;;1.70;1.52;;;;;;;-4.25;82.17;99203.28;10575247;27;20767;-79
2022/12/13 18:13:47;;;;;;;2.53;1.50;;;;;;;-4.30;82.89;99216.53;10605267;27;20046;-74
2022/12/13 18:18:53;;;;;;;3.50;1.75;;;;;;;-4.30;81.72;99223.75;10610080;27;20051;-73
2022/12/13 18:23:55;;;;;;;1.75;1.30;;;;;;;-4.30;81.50;99223.75;10591316;27;20055;-76
2022/12/13 18:28:57;;;;;;;3.95;1.58;;;;;;;-4.33;82.57;99234.91;10581548;27;20043;-76
2022/12/13 18:33:59;;;;;;;2.65;1.30;;;;;;;-4.36;81.84;99221.91;10638403;27;20051;-77
2022/12/13 18:39:02;;;;;;;2.65;1.52;;;;;;;-4.37;81.12;99236.34;10631541;28;20044;-75
2022/12/13 18:44:06;;;;;;;1.42;1.08;;;;;;;-4.40;81.77;99245.66;10622223;28;20053;-76
2022/12/13 18:49:09;;;;;;;3.90;1.38;;;;;;;-4.45;82.56;99242.00;10625684;28;20048;-76
2022/12/13 18:54:12;;;;;;;2.55;1.23;;;;;;;-4.48;82.68;99253.97;10617401;28;20036;-76
2022/12/13 18:59:15;;;;;;;1.10;0.98;;;;;;;-4.52;82.30;99247.38;10637083;27;20055;-75
2022/12/13 19:04:17;;;;;;;1.80;1.23;;;;;;;-4.51;82.53;99253.56;10654988;27;20493;-76
2022/12/13 19:09:19;;;;;;;1.80;1.20;;;;;;;-4.51;81.59;99265.09;10642911;27;20045;-75
2022/12/13 19:14:21;;;;;;;1.35;1.08;;;;;;;-4.49;81.12;99267.56;10635103;27;20046;-75
2022/12/13 19:19:27;;;;;;;2.15;1.42;;;;;;;-4.46;81.01;99264.44;10637520;27;20043;-74
2022/12/13 19:24:32;;;;;;;1.60;1.50;;;;;;;-4.48;81.00;99272.69;10594132;27;20047;-76
2022/12/13 19:29:34;;;;;;;2.13;1.50;;;;;;;-4.48;81.61;99290.63;10631507;27;20861;-75
2022/12/13 19:34:38;;;;;;;1.30;1.05;;;;;;;-4.51;81.45;99291.88;10629766;28;20085;-75
2022/12/13 19:39:40;;;;;;;2.90;1.10;;;;;;;-4.50;81.67;99298.88;10612866;27;20046;-75
2022/12/13 19:44:42;;;;;;;1.63;1.23;;;;;;;-4.51;81.77;99302.59;10616868;27;20053;-75
2022/12/13 19:49:48;;;;;;;2.00;1.30;;;;;;;-4.51;82.93;99313.28;10641285;27;20039;-74
2022/12/13 19:54:50;;;;;;;1.85;1.20;;;;;;;-4.52;82.30;99316.97;10641576;27;20501;-74
2022/12/13 19:59:53;;;;;;;1.30;1.02;;;;;;;-4.52;82.83;99318.84;10591919;27;20039;-74
2022/12/13 20:04:56;;;;;;;1.10;0.77;;;;;;;-4.52;81.87;99316.16;10619644;27;20043;-74
2022/12/13 20:09:58;;;;;;;2.60;1.30;;;;;;;-4.52;82.06;99326.88;10592553;27;20043;-74
2022/12/13 20:15:02;;;;;;;2.42;1.65;;;;;;;-4.52;82.10;99333.03;10625885;27;20055;-74
2022/12/13 20:20:08;;;;;;;0.70;0.70;;;;;;;-4.52;82.61;99334.91;10619288;27;20039;-74
2022/12/13 20:25:10;;;;;;;2.40;1.27;;;;;;;-4.52;81.66;99334.91;10624051;27;20507;-76
2022/12/13 20:30:13;;;;;;;1.63;1.08;;;;;;;-4.55;82.13;99333.47;10605960;27;20045;-75
2022/12/13 20:35:17;;;;;;;2.28;1.20;;;;;;;-4.59;82.58;99353.69;10612164;27;20051;-77
2022/12/13 20:40:19;;;;;;;1.30;1.20;;;;;;;-4.60;81.70;99334.13;10627406;27;20408;-77
2022/12/13 20:45:21;;;;;;;1.40;1.02;;;;;;;-4.60;81.80;99341.34;10625797;27;20047;-77
2022/12/13 20:50:23;;;;;;;1.45;1.10;;;;;;;-4.60;81.88;99338.66;10624118;27;20032;-78
2022/12/13 20:55:26;;;;;;;0.75;0.75;;;;;;;-4.58;81.78;99329.38;10624440;27;20039;-76
2022/12/13 21:00:33;;;;;;;4.32;1.55;;;;;;;-4.53;81.14;99330.56;10638051;27;20499;-75
2022/12/13 21:05:35;;;;;;;2.95;1.27;;;;;;;-4.52;81.99;99337.56;10606975;27;20040;-75
2022/12/13 21:10:41;;;;;;;1.48;1.23;;;;;;;-4.53;82.67;99331.41;10612594;27;20039;-79
2022/12/13 21:15:44;;;;;;;1.38;0.90;;;;;;;-4.50;82.29;99341.69;10597516;27;20040;-77
2022/12/13 21:20:46;;;;;;;1.48;1.38;;;;;;;-4.48;82.36;99336.13;10636131;27;20499;-80
2022/12/13 21:25:50;;;;;;;1.45;1.23;;;;;;;-4.47;81.66;99356.50;10620223;27;20048;-81
2022/12/13 21:31:00;;;;;;;1.95;1.38;;;;;;;-4.48;82.78;99360.22;10603831;27;20417;-77
2022/12/13 21:36:16;;;;;;;1.30;1.20;;;;;;;-4.51;82.37;99355.28;10630222;27;20052;-78
2022/12/13 21:41:19;;;;;;;3.58;1.50;;;;;;;-4.51;82.76;99368.66;10590947;28;20032;-78
2022/12/13 21:46:24;;;;;;;1.60;1.05;;;;;;;-4.53;82.80;99354.66;10609844;28;20379;-80
2022/12/13 21:51:29;;;;;;;1.15;0.70;;;;;;;-4.58;83.26;99366.84;10585950;27;20031;-82
2022/12/13 22:02:11;;;;;;;3.05;1.33;;;;;;;-4.57;83.28;99354.28;10617088;27;20044;-77
2022/12/13 22:07:16;;;;;;;2.45;1.40;;;;;;;-4.58;82.74;99366.84;10609794;28;20043;-80
2022/12/13 22:12:35;;;;;;;2.67;1.40;;;;;;;-4.59;82.71;99362.53;10633571;27;20062;-76
2022/12/13 22:17:38;;;;;;;1.55;1.45;;;;;;;-4.60;82.42;99371.59;10627300;27;20038;-85
2022/12/13 22:22:42;;;;;;;2.10;1.27;;;;;;;-4.58;82.16;99376.72;10635300;27;20432;-77
2022/12/13 22:27:45;;;;;;;1.80;1.33;;;;;;;-4.56;82.60;99372.81;10602102;27;20047;-76
2022/12/13 22:32:47;;;;;;;3.05;1.40;;;;;;;-4.53;82.91;99373.41;10628674;27;20566;-76
2022/12/13 22:37:49;;;;;;;1.98;1.23;;;;;;;-4.52;82.61;99378.53;10630356;28;20043;-74
2022/12/13 22:42:51;;;;;;;1.27;1.17;;;;;;;-4.52;82.94;99383.06;10633967;28;20081;-78
2022/12/13 22:47:54;;;;;;;1.65;1.25;;;;;;;-4.50;82.85;99378.34;10624871;28;20051;-77
2022/12/13 22:52:56;;;;;;;1.05;0.95;;;;;;;-4.49;82.42;99380.00;10659566;28;20074;-77
2022/12/13 22:57:59;;;;;;;2.20;1.40;;;;;;;-4.46;82.96;99380.38;10596026;28;20096;-79
2022/12/13 23:03:01;;;;;;;2.63;1.50;;;;;;;-4.48;82.93;99390.50;10598583;28;20035;-79
2022/12/13 23:08:03;;;;;;;2.55;1.30;;;;;;;-4.48;82.98;99376.28;10608397;28;20404;-81
2022/12/13 23:13:06;;;;;;;1.48;1.33;;;;;;;-4.47;83.72;99380.59;10637167;28;20271;-81
2022/12/13 23:18:08;;;;;;;2.60;1.52;;;;;;;-4.49;84.37;99377.31;10636906;28;20039;-81
2022/12/13 23:23:10;;;;;;;2.13;1.40;;;;;;;-4.46;83.85;99382.25;10619718;28;20040;-80
2022/12/13 23:28:12;;;;;;;2.05;1.25;;;;;;;-4.47;84.11;99394.00;10637027;28;20036;-80
2022/12/13 23:33:14;;;;;;;1.73;1.33;;;;;;;-4.43;83.85;99397.88;10613723;28;20575;-81
2022/12/13 23:38:16;;;;;;;1.90;1.35;;;;;;;-4.42;83.93;99396.84;10597210;28;20062;-79
2022/12/13 23:43:18;;;;;;;1.60;1.33;;;;;;;-4.42;84.35;99400.34;10621132;27;20075;-79
2022/12/13 23:48:21;;;;;;;1.48;1.15;;;;;;;-4.42;84.25;99400.34;10613000;27;20050;-81
2022/12/13 23:53:23;;;;;;;3.17;1.40;;;;;;;-4.42;83.62;99407.53;10613650;27;20062;-86